createdAt,value
2019-03-06T00:01:08.372Z,83.10
2019-03-06T00:02:15.730Z,82.90
2019-03-06T00:03:26.496Z,83.10
2019-03-06T00:04:42.318Z,82.80
2019-03-06T00:05:49.637Z,82.70
2019-03-06T00:07:08.553Z,82.80
2019-03-06T00:08:15.542Z,82.60
2019-03-06T00:09:36.800Z,82.50
2019-03-06T00:10:44.999Z,82.40
2019-03-06T00:13:24.028Z,82.20
2019-03-06T00:15:01.232Z,82.10
2019-03-06T00:16:03.668Z,82.20
2019-03-06T00:17:09.727Z,82.00
2019-03-06T00:18:14.307Z,82.20
2019-03-06T00:19:21.340Z,82.30
2019-03-06T00:20:28.376Z,82.20
2019-03-06T00:21:35.924Z,82.30
2019-03-06T00:22:44.780Z,82.50
2019-03-06T00:23:49.687Z,82.40
2019-03-06T00:24:56.184Z,82.50
2019-03-06T00:26:16.033Z,82.50
2019-03-06T00:27:16.566Z,82.40
2019-03-06T00:28:26.277Z,82.20
2019-03-06T00:29:33.152Z,82.40
2019-03-06T00:30:39.982Z,82.30
2019-03-06T00:32:18.786Z,82.50
2019-03-06T00:33:13.744Z,82.30
2019-03-06T00:34:18.954Z,82.60
2019-03-06T00:35:25.132Z,82.50
2019-03-06T00:36:36.375Z,82.90
2019-03-06T00:37:42.889Z,82.70
2019-03-06T00:38:51.412Z,82.70
2019-03-06T00:40:06.609Z,83.00
2019-03-06T00:41:24.683Z,83.00
2019-03-06T00:42:34.360Z,83.40
2019-03-06T00:43:42.886Z,83.10
2019-03-06T00:45:00.711Z,83.10
2019-03-06T00:46:30.089Z,83.10
2019-03-06T00:52:09.778Z,83.70
2019-03-06T00:52:14.089Z,83.90
2019-03-06T00:52:59.341Z,84.00
2019-03-06T00:54:30.586Z,84.00
2019-03-06T00:55:56.423Z,84.20
2019-03-06T00:57:04.426Z,84.10
2019-03-06T00:58:21.907Z,85.00
2019-03-06T00:59:28.203Z,84.40
2019-03-06T01:00:36.055Z,84.30
2019-03-06T01:01:49.601Z,84.40
2019-03-06T01:02:53.775Z,84.50
2019-03-06T01:05:21.429Z,84.80
2019-03-06T01:06:44.141Z,84.60
2019-03-06T01:07:51.129Z,84.70
2019-03-06T01:09:10.474Z,84.80
2019-03-06T01:10:19.681Z,86.00
2019-03-06T01:11:30.689Z,84.80
2019-03-06T01:13:54.067Z,85.00
2019-03-06T01:15:01.181Z,85.50
2019-03-06T01:16:28.693Z,85.20
2019-03-06T01:17:26.131Z,85.20
2019-03-06T01:18:49.738Z,85.30
2019-03-06T01:19:50.355Z,85.60
2019-03-06T01:21:02.002Z,85.60
2019-03-06T01:22:19.679Z,85.80
2019-03-06T01:23:28.842Z,85.90
2019-03-06T01:24:41.753Z,85.90
2019-03-06T01:26:04.883Z,85.80
2019-03-06T01:27:11.461Z,86.00
2019-03-06T01:28:20.161Z,86.00
2019-03-06T01:29:34.931Z,86.10
2019-03-06T01:31:01.049Z,86.00
2019-03-06T01:32:02.984Z,86.00
2019-03-06T01:34:55.443Z,86.30
2019-03-06T01:36:10.434Z,86.30
2019-03-06T01:37:39.983Z,86.40
2019-03-06T01:38:11.311Z,86.20
2019-03-06T01:38:54.642Z,86.30
2019-03-06T01:40:30.073Z,86.90
2019-03-06T01:42:00.051Z,87.00
2019-03-06T01:43:32.352Z,86.90
2019-03-06T01:44:47.247Z,87.00
2019-03-06T01:45:46.844Z,86.80
2019-03-06T01:48:31.898Z,87.10
2019-03-06T01:51:16.163Z,87.60
2019-03-06T01:52:25.729Z,87.70
2019-03-06T01:53:41.682Z,87.50
2019-03-06T01:54:50.133Z,87.80
2019-03-06T01:56:00.130Z,87.90
2019-03-06T01:57:09.247Z,87.60
2019-03-06T01:58:18.656Z,87.90
2019-03-06T01:59:38.526Z,87.90
2019-03-06T02:00:43.740Z,88.10
2019-03-06T02:02:40.008Z,88.30
2019-03-06T02:03:00.081Z,88.30
2019-03-06T02:04:24.965Z,88.50
2019-03-06T02:05:21.347Z,88.70
2019-03-06T02:06:42.233Z,88.70
2019-03-06T02:07:43.154Z,89.00
2019-03-06T02:08:59.304Z,88.80
2019-03-06T02:10:06.080Z,89.00
2019-03-06T02:11:13.397Z,88.80
2019-03-06T02:12:25.794Z,88.80
2019-03-06T02:13:35.703Z,89.00
2019-03-06T02:14:44.495Z,89.10
2019-03-06T02:16:12.447Z,89.00
2019-03-06T02:17:12.311Z,89.30
2019-03-06T02:18:26.451Z,89.30
2019-03-06T02:19:28.888Z,89.10
2019-03-06T02:20:39.417Z,89.30
2019-03-06T02:21:46.697Z,89.00
2019-03-06T02:22:54.088Z,89.30
2019-03-06T02:24:07.593Z,89.10
2019-03-06T02:25:17.270Z,89.20
2019-03-06T02:26:23.600Z,89.10
2019-03-06T02:27:34.700Z,89.30
2019-03-06T02:28:37.336Z,89.10
2019-03-06T02:29:43.862Z,89.30
2019-03-06T02:30:52.851Z,89.40
2019-03-06T02:32:14.117Z,89.40
2019-03-06T02:33:25.735Z,89.40
2019-03-06T02:34:33.972Z,89.00
2019-03-06T02:35:43.763Z,89.00
2019-03-06T02:36:52.707Z,88.80
2019-03-06T02:38:01.492Z,88.70
2019-03-06T02:39:16.730Z,88.80
2019-03-06T02:40:23.928Z,89.00
2019-03-06T02:41:33.507Z,89.10
2019-03-06T02:42:42.146Z,89.00
2019-03-06T02:43:54.308Z,89.00
2019-03-06T02:45:01.799Z,88.90
2019-03-06T02:47:46.274Z,88.80
2019-03-06T02:49:08.247Z,88.70
2019-03-06T02:50:17.451Z,88.80
2019-03-06T02:51:29.480Z,88.70
2019-03-06T02:52:52.645Z,88.70
2019-03-06T02:53:58.185Z,88.70
2019-03-06T02:55:06.617Z,88.90
2019-03-06T02:56:23.896Z,88.80
2019-03-06T02:57:28.492Z,88.90
2019-03-06T02:58:50.942Z,89.00
2019-03-06T03:00:07.268Z,89.00
2019-03-06T03:01:32.814Z,89.40
2019-03-06T03:02:41.629Z,88.90
2019-03-06T03:04:16.831Z,89.10
2019-03-06T03:05:35.462Z,89.10
2019-03-06T03:06:51.509Z,89.10
2019-03-06T03:08:08.833Z,89.10
2019-03-06T03:09:35.449Z,89.10
2019-03-06T03:10:40.789Z,89.20
2019-03-06T03:11:50.353Z,89.30
2019-03-06T03:13:00.490Z,89.50
2019-03-06T03:16:16.127Z,90.00
2019-03-06T03:17:03.869Z,89.90
2019-03-06T03:18:11.152Z,90.00
2019-03-06T03:19:17.905Z,90.00
2019-03-06T03:20:23.768Z,90.10
2019-03-06T03:21:34.759Z,90.00
2019-03-06T03:22:40.236Z,90.10
2019-03-06T03:23:47.327Z,90.00
2019-03-06T03:25:03.622Z,90.00
2019-03-06T03:26:30.329Z,90.00
2019-03-06T03:27:30.050Z,90.00
2019-03-06T03:28:38.256Z,90.10
2019-03-06T03:29:46.447Z,90.10
2019-03-06T03:30:59.278Z,90.10
2019-03-06T03:32:08.879Z,90.10
2019-03-06T03:33:21.570Z,90.10
2019-03-06T03:35:50.090Z,90.00
2019-03-06T03:36:59.187Z,90.00
2019-03-06T03:38:09.348Z,89.90
2019-03-06T03:39:17.120Z,89.80
2019-03-06T03:40:25.260Z,89.50
2019-03-06T03:41:30.412Z,89.90
2019-03-06T03:42:37.614Z,89.10
2019-03-06T03:43:47.795Z,89.30
2019-03-06T03:44:56.069Z,88.60
2019-03-06T03:46:26.485Z,88.70
2019-03-06T03:47:13.865Z,88.40
2019-03-06T03:48:19.889Z,88.40
2019-03-06T03:49:34.029Z,88.30
2019-03-06T03:50:41.873Z,88.20
2019-03-06T03:51:47.932Z,87.90
2019-03-06T03:53:01.045Z,88.00
2019-03-06T03:54:16.880Z,88.00
2019-03-06T03:55:41.644Z,88.00
2019-03-06T03:56:51.669Z,88.40
2019-03-06T03:57:57.023Z,87.60
2019-03-06T03:59:02.824Z,87.70
2019-03-06T04:00:13.161Z,88.00
2019-03-06T04:01:16.890Z,87.60
2019-03-06T04:02:29.711Z,87.70
2019-03-06T04:03:29.087Z,87.20
2019-03-06T04:04:39.193Z,86.60
2019-03-06T04:05:53.270Z,86.50
2019-03-06T04:06:58.068Z,86.20
2019-03-06T04:08:08.514Z,86.50
2019-03-06T04:09:07.072Z,86.80
2019-03-06T04:10:35.970Z,86.80
2019-03-06T04:13:00.635Z,87.30
2019-03-06T04:14:20.639Z,86.70
2019-03-06T04:16:47.891Z,86.60
2019-03-06T04:17:55.780Z,86.70
2019-03-06T04:19:11.131Z,86.90
2019-03-06T04:20:18.761Z,86.80
2019-03-06T04:21:31.686Z,87.10
2019-03-06T04:22:37.701Z,87.20
2019-03-06T04:23:48.747Z,87.10
2019-03-06T04:24:55.934Z,86.90
2019-03-06T04:26:02.827Z,87.20
2019-03-06T04:27:18.263Z,87.30
2019-03-06T04:28:30.178Z,86.80
2019-03-06T04:29:38.976Z,86.70
2019-03-06T04:30:47.107Z,87.10
2019-03-06T04:31:54.335Z,87.30
2019-03-06T04:33:00.313Z,87.00
2019-03-06T04:34:06.975Z,87.90
2019-03-06T04:35:19.257Z,87.40
2019-03-06T04:36:29.278Z,87.70
2019-03-06T04:38:24.012Z,87.50
2019-03-06T04:38:48.963Z,87.10
2019-03-06T04:39:58.694Z,87.60
2019-03-06T04:41:12.250Z,87.10
2019-03-06T04:42:23.938Z,87.00
2019-03-06T04:43:31.196Z,86.50
2019-03-06T04:44:37.828Z,86.50
2019-03-06T04:46:01.081Z,86.60
2019-03-06T04:46:57.193Z,86.80
2019-03-06T04:48:03.598Z,87.10
2019-03-06T04:49:09.405Z,86.70
2019-03-06T04:50:17.912Z,86.90
2019-03-06T04:51:23.775Z,86.80
2019-03-06T04:52:30.230Z,87.00
2019-03-06T04:53:38.359Z,87.00
2019-03-06T04:54:44.090Z,86.80
2019-03-06T04:55:53.172Z,86.70
2019-03-06T04:56:59.358Z,86.70
2019-03-06T04:58:06.335Z,86.70
2019-03-06T04:59:13.251Z,86.50
2019-03-06T05:00:24.308Z,86.70
2019-03-06T05:01:30.232Z,86.60
2019-03-06T05:02:46.249Z,86.60
2019-03-06T05:03:45.320Z,86.70
2019-03-06T05:04:56.740Z,87.40
2019-03-06T05:06:06.237Z,87.00
2019-03-06T05:07:14.945Z,86.20
2019-03-06T05:08:22.846Z,86.10
2019-03-06T05:09:33.804Z,86.50
2019-03-06T05:10:38.072Z,86.10
2019-03-06T05:11:48.293Z,85.80
2019-03-06T05:12:54.409Z,85.80
2019-03-06T05:14:00.463Z,86.10
2019-03-06T05:15:14.298Z,85.70
2019-03-06T05:16:22.066Z,86.00
2019-03-06T05:17:44.590Z,86.20
2019-03-06T05:18:54.004Z,85.70
2019-03-06T05:19:58.383Z,85.50
2019-03-06T05:21:11.105Z,85.80
2019-03-06T05:22:30.420Z,85.80
2019-03-06T05:23:48.483Z,86.10
2019-03-06T05:24:49.401Z,85.90
2019-03-06T05:26:23.642Z,85.70
2019-03-06T05:27:14.580Z,85.60
2019-03-06T05:28:24.234Z,85.60
2019-03-06T05:30:17.299Z,86.00
2019-03-06T05:31:28.366Z,86.20
2019-03-06T05:32:38.810Z,86.20
2019-03-06T05:33:46.434Z,86.30
2019-03-06T05:35:10.419Z,86.60
2019-03-06T05:36:33.009Z,86.80
2019-03-06T05:38:13.779Z,86.70
2019-03-06T05:39:32.566Z,86.60
2019-03-06T05:40:48.932Z,86.20
2019-03-06T05:41:55.694Z,86.00
2019-03-06T05:43:18.235Z,86.20
2019-03-06T05:44:32.537Z,86.50
2019-03-06T05:45:49.788Z,86.30
2019-03-06T05:46:56.438Z,86.40
2019-03-06T05:49:13.670Z,86.60
2019-03-06T05:49:51.563Z,85.90
2019-03-06T05:51:09.970Z,87.60
2019-03-06T05:51:43.860Z,87.10
2019-03-06T05:53:10.894Z,86.30
2019-03-06T05:54:13.772Z,86.00
2019-03-06T05:56:02.414Z,86.30
2019-03-06T05:57:09.507Z,86.40
2019-03-06T06:00:00.219Z,86.20
2019-03-06T06:01:22.972Z,86.60
2019-03-06T06:02:19.058Z,86.60
2019-03-06T06:03:36.628Z,86.70
2019-03-06T06:04:59.649Z,86.40
2019-03-06T06:08:34.620Z,86.40
2019-03-06T06:09:20.358Z,86.70
2019-03-06T06:10:09.827Z,86.80
2019-03-06T06:11:40.293Z,87.20
2019-03-06T06:12:55.314Z,87.00
2019-03-06T06:13:56.540Z,87.00
2019-03-06T06:17:58.088Z,86.70
2019-03-06T06:19:14.898Z,87.00
2019-03-06T06:20:36.614Z,87.50
2019-03-06T06:22:39.001Z,87.40
2019-03-06T06:24:45.054Z,87.40
2019-03-06T06:25:02.669Z,87.20
2019-03-06T06:26:12.250Z,87.30
2019-03-06T06:27:17.513Z,87.00
2019-03-06T06:28:46.105Z,86.80
2019-03-06T06:30:01.885Z,86.80
2019-03-06T06:31:01.412Z,87.10
2019-03-06T06:33:49.419Z,87.80
2019-03-06T06:35:01.955Z,88.00
2019-03-06T06:36:15.852Z,87.70
2019-03-06T06:38:06.242Z,87.80
2019-03-06T06:38:28.412Z,87.90
2019-03-06T06:40:24.848Z,88.10
2019-03-06T06:42:47.643Z,87.70
2019-03-06T06:43:12.956Z,87.90
2019-03-06T06:45:30.972Z,86.70
2019-03-06T06:47:52.518Z,86.90
2019-03-06T06:50:02.998Z,87.10
2019-03-06T06:52:01.068Z,87.20
2019-03-06T06:53:26.606Z,87.00
2019-03-06T06:54:58.479Z,86.40
2019-03-06T06:56:23.010Z,86.80
2019-03-06T06:57:36.418Z,86.90
2019-03-06T07:01:06.829Z,87.00
2019-03-06T07:02:44.514Z,87.00
2019-03-06T07:04:38.451Z,87.50
2019-03-06T07:07:48.750Z,87.20
2019-03-06T07:09:03.091Z,87.00
2019-03-06T07:10:32.926Z,87.30
2019-03-06T07:11:44.891Z,87.50
2019-03-06T07:13:06.402Z,87.50
2019-03-06T07:14:14.899Z,87.50
2019-03-06T07:17:15.603Z,87.50
2019-03-06T07:18:53.388Z,88.30
2019-03-06T07:20:09.674Z,87.50
2019-03-06T07:21:29.258Z,86.50
2019-03-06T07:22:41.416Z,87.30
2019-03-06T07:23:52.558Z,87.10
2019-03-06T07:25:01.054Z,86.80
2019-03-06T07:26:22.376Z,86.50
2019-03-06T07:29:04.652Z,86.40
2019-03-06T07:29:30.112Z,86.70
2019-03-06T07:30:31.956Z,86.10
2019-03-06T07:33:21.019Z,85.90
2019-03-06T07:34:53.393Z,85.80
2019-03-06T07:36:19.159Z,85.60
2019-03-06T07:37:29.818Z,85.80
2019-03-06T07:41:34.460Z,86.10
2019-03-06T07:41:54.911Z,86.10
2019-03-06T07:44:30.070Z,85.70
2019-03-06T07:45:49.432Z,85.20
2019-03-06T07:47:00.784Z,85.00
2019-03-06T07:50:07.144Z,84.70
2019-03-06T07:51:06.434Z,85.00
2019-03-06T07:52:19.269Z,84.80
2019-03-06T07:54:00.976Z,84.90
2019-03-06T07:55:10.321Z,85.20
2019-03-06T07:56:23.656Z,84.90
2019-03-06T07:57:36.588Z,84.60
2019-03-06T07:59:00.274Z,84.30
2019-03-06T08:00:06.286Z,84.00
2019-03-06T08:01:17.056Z,83.80
2019-03-06T08:02:54.605Z,83.70
2019-03-06T08:04:10.647Z,83.60
2019-03-06T08:05:15.038Z,83.50
2019-03-06T08:06:21.610Z,83.40
2019-03-06T08:07:26.202Z,83.40
2019-03-06T08:08:31.761Z,83.20
2019-03-06T08:09:38.939Z,83.10
2019-03-06T08:10:47.216Z,83.10
2019-03-06T08:11:56.932Z,83.00
2019-03-06T08:13:10.396Z,83.10
2019-03-06T08:14:35.272Z,82.70
2019-03-06T08:15:41.090Z,82.60
2019-03-06T08:16:47.476Z,82.70
2019-03-06T08:18:09.018Z,82.70
2019-03-06T08:19:23.947Z,82.70
2019-03-06T08:20:41.227Z,82.90
2019-03-06T08:21:47.106Z,83.00
2019-03-06T08:23:05.037Z,83.20
2019-03-06T08:24:27.839Z,83.50
2019-03-06T08:25:48.643Z,83.60
2019-03-06T08:27:03.022Z,83.70
2019-03-06T08:28:09.055Z,83.80
2019-03-06T08:29:14.378Z,83.60
2019-03-06T08:30:20.818Z,83.40
2019-03-06T08:31:29.351Z,83.40
2019-03-06T08:32:33.645Z,82.80
2019-03-06T08:33:38.997Z,82.20
2019-03-06T08:34:45.007Z,82.40
2019-03-06T08:35:52.146Z,82.30
2019-03-06T08:37:00.053Z,82.10
2019-03-06T08:38:09.093Z,82.00
2019-03-06T08:39:20.268Z,82.10
2019-03-06T08:40:31.054Z,82.30
2019-03-06T08:41:45.502Z,82.50
2019-03-06T08:42:52.642Z,82.50
2019-03-06T08:44:01.974Z,82.20
2019-03-06T08:45:08.559Z,82.70
2019-03-06T08:46:19.925Z,81.90
2019-03-06T08:47:31.805Z,81.80
2019-03-06T08:48:39.200Z,81.80
2019-03-06T08:49:51.891Z,81.50
2019-03-06T08:50:58.289Z,81.30
2019-03-06T08:52:14.127Z,80.90
2019-03-06T08:53:29.818Z,79.70
2019-03-06T08:54:40.468Z,79.40
2019-03-06T08:56:02.156Z,79.50
2019-03-06T08:57:26.876Z,79.40
2019-03-06T08:58:34.380Z,78.60
2019-03-06T08:59:45.914Z,78.70
2019-03-06T09:01:09.516Z,78.60
2019-03-06T09:02:15.959Z,78.60
2019-03-06T09:03:31.708Z,78.90
2019-03-06T09:06:19.957Z,78.60
2019-03-06T09:07:27.278Z,78.40
2019-03-06T09:08:50.583Z,78.20
2019-03-06T09:10:14.762Z,77.70
2019-03-06T09:11:33.796Z,77.70
2019-03-06T09:12:50.122Z,77.00
2019-03-06T09:14:11.063Z,77.00
2019-03-06T09:15:23.885Z,77.50
2019-03-06T09:16:29.991Z,77.70
2019-03-06T09:17:36.043Z,78.10
2019-03-06T09:18:44.497Z,78.50
2019-03-06T09:19:53.120Z,78.60
2019-03-06T09:21:02.131Z,78.40
2019-03-06T09:22:15.865Z,78.10
2019-03-06T09:23:30.723Z,77.90
2019-03-06T09:24:47.045Z,77.60
2019-03-06T09:26:04.847Z,76.60
2019-03-06T09:27:11.000Z,77.00
2019-03-06T09:28:20.665Z,76.00
2019-03-06T09:29:45.183Z,75.90
2019-03-06T09:30:53.691Z,76.10
2019-03-06T09:32:05.145Z,75.50
2019-03-06T09:33:11.084Z,75.30
2019-03-06T09:34:17.178Z,75.30
2019-03-06T09:35:51.430Z,75.10
2019-03-06T09:37:07.545Z,75.30
2019-03-06T09:38:32.487Z,74.80
2019-03-06T09:39:45.651Z,75.00
2019-03-06T09:40:58.487Z,74.80
2019-03-06T09:42:18.560Z,75.20
2019-03-06T09:43:27.893Z,75.20
2019-03-06T09:44:37.389Z,75.00
2019-03-06T09:45:54.971Z,75.10
2019-03-06T09:47:17.383Z,75.20
2019-03-06T09:48:41.033Z,75.40
2019-03-06T09:49:53.427Z,75.50
2019-03-06T09:51:10.123Z,75.70
2019-03-06T09:52:23.803Z,75.90
2019-03-06T09:53:47.434Z,76.20
2019-03-06T09:54:55.081Z,76.30
2019-03-06T09:56:02.949Z,76.60
2019-03-06T09:57:22.266Z,77.00
2019-03-06T09:58:34.451Z,76.70
2019-03-06T09:59:52.603Z,76.80
2019-03-06T10:01:10.367Z,76.70
2019-03-06T10:02:38.129Z,76.90
2019-03-06T10:03:52.879Z,77.00
2019-03-06T10:06:52.020Z,77.20
2019-03-06T10:08:15.199Z,77.50
2019-03-06T10:09:40.868Z,77.40
2019-03-06T10:10:57.757Z,77.50
2019-03-06T10:12:11.159Z,77.20
2019-03-06T10:13:18.817Z,76.80
2019-03-06T10:14:35.329Z,76.20
2019-03-06T10:15:56.527Z,75.90
2019-03-06T10:17:18.398Z,76.00
2019-03-06T10:18:26.846Z,76.20
2019-03-06T10:19:38.237Z,76.70
2019-03-06T10:20:44.603Z,76.60
2019-03-06T10:21:52.471Z,77.10
2019-03-06T10:22:59.508Z,77.20
2019-03-06T10:24:06.926Z,77.00
2019-03-06T10:25:12.002Z,77.20
2019-03-06T10:26:16.237Z,77.40
2019-03-06T10:27:23.400Z,77.30
2019-03-06T10:28:29.193Z,77.00
2019-03-06T10:29:37.766Z,77.20
2019-03-06T10:30:44.158Z,77.30
2019-03-06T10:32:00.347Z,77.60
2019-03-06T10:33:02.768Z,77.00
2019-03-06T10:34:30.525Z,76.80
2019-03-06T10:35:19.982Z,77.20
2019-03-06T10:36:27.497Z,77.10
2019-03-06T10:37:37.515Z,77.40
2019-03-06T10:38:43.862Z,77.40
2019-03-06T10:40:08.547Z,77.40
2019-03-06T10:41:15.049Z,77.30
2019-03-06T10:42:22.082Z,77.50
2019-03-06T10:43:36.021Z,77.70
2019-03-06T10:44:40.322Z,77.50
2019-03-06T10:46:14.267Z,76.90
2019-03-06T10:47:15.153Z,76.70
2019-03-06T10:48:21.609Z,76.00
2019-03-06T10:49:36.365Z,76.00
2019-03-06T10:50:44.642Z,76.10
2019-03-06T10:51:52.702Z,74.90
2019-03-06T10:53:01.461Z,74.50
2019-03-06T10:54:06.094Z,75.30
2019-03-06T10:55:14.597Z,74.50
2019-03-06T10:56:19.842Z,74.70
2019-03-06T10:57:26.886Z,74.20
2019-03-06T10:58:32.369Z,74.40
2019-03-06T10:59:38.170Z,74.30
2019-03-06T11:00:46.090Z,74.40
2019-03-06T11:01:54.422Z,74.50
2019-03-06T11:03:00.111Z,74.30
2019-03-06T11:04:21.091Z,74.50
2019-03-06T11:05:34.625Z,74.70
2019-03-06T11:06:42.893Z,74.40
2019-03-06T11:07:49.928Z,74.50
2019-03-06T11:08:59.634Z,74.60
2019-03-06T11:10:23.070Z,74.90
2019-03-06T11:11:16.597Z,75.40
2019-03-06T11:12:36.723Z,75.30
2019-03-06T11:13:27.764Z,74.80
2019-03-06T11:14:33.397Z,74.50
2019-03-06T11:15:42.560Z,74.40
2019-03-06T11:16:54.621Z,74.50
2019-03-06T11:18:01.429Z,74.70
2019-03-06T11:19:09.786Z,74.50
2019-03-06T11:20:30.079Z,74.90
2019-03-06T11:21:34.557Z,74.70
2019-03-06T11:22:39.124Z,74.40
2019-03-06T11:23:47.339Z,73.50
2019-03-06T11:24:54.983Z,73.00
2019-03-06T11:26:01.985Z,72.40
2019-03-06T11:27:09.197Z,72.00
2019-03-06T11:28:15.922Z,72.60
2019-03-06T11:29:24.159Z,73.00
2019-03-06T11:30:49.775Z,73.10
2019-03-06T11:31:55.995Z,71.90
2019-03-06T11:33:04.937Z,72.30
2019-03-06T11:34:10.011Z,72.90
2019-03-06T11:35:19.048Z,73.10
2019-03-06T11:36:26.170Z,73.20
2019-03-06T11:37:35.263Z,73.20
2019-03-06T11:38:39.771Z,73.40
2019-03-06T11:39:46.537Z,72.50
2019-03-06T11:40:51.424Z,72.60
2019-03-06T11:41:59.107Z,71.60
2019-03-06T11:43:03.912Z,70.70
2019-03-06T11:44:08.287Z,70.80
2019-03-06T11:45:19.899Z,71.10
2019-03-06T11:46:25.253Z,70.60
2019-03-06T11:47:29.636Z,70.90
2019-03-06T11:48:35.889Z,68.70
2019-03-06T11:49:41.631Z,68.90
2019-03-06T11:50:49.252Z,69.80
2019-03-06T11:51:56.491Z,69.50
2019-03-06T11:53:03.892Z,68.20
2019-03-06T11:54:11.741Z,67.10
2019-03-06T11:55:19.041Z,67.40
2019-03-06T11:56:23.874Z,67.80
2019-03-06T11:57:29.380Z,67.90
2019-03-06T11:58:36.449Z,67.70
2019-03-06T11:59:40.819Z,67.60
2019-03-06T12:00:50.231Z,67.50
2019-03-06T12:01:59.814Z,67.90
2019-03-06T12:03:10.381Z,67.20
2019-03-06T12:04:14.881Z,67.50
2019-03-06T12:05:22.291Z,67.60
2019-03-06T12:06:27.415Z,67.40
2019-03-06T12:07:31.795Z,67.40
2019-03-06T12:08:42.869Z,66.70
2019-03-06T12:09:47.603Z,65.40
2019-03-06T12:10:55.370Z,65.20
2019-03-06T12:12:01.920Z,64.90
2019-03-06T12:13:09.230Z,64.90
2019-03-06T12:14:13.479Z,64.50
2019-03-06T12:15:17.786Z,64.90
2019-03-06T12:16:22.130Z,64.10
2019-03-06T12:17:26.304Z,63.90
2019-03-06T12:18:31.620Z,63.40
2019-03-06T12:19:38.979Z,62.70
2019-03-06T12:20:45.151Z,62.70
2019-03-06T12:21:51.650Z,62.70
2019-03-06T12:22:56.202Z,62.00
2019-03-06T12:24:05.133Z,61.90
2019-03-06T12:25:13.932Z,62.10
2019-03-06T12:26:25.103Z,62.70
2019-03-06T12:27:35.626Z,62.20
2019-03-06T12:28:40.720Z,62.00
2019-03-06T12:29:47.860Z,61.90
2019-03-06T12:30:54.374Z,61.80
2019-03-06T12:32:06.804Z,62.00
2019-03-06T12:33:20.202Z,61.70
2019-03-06T12:34:26.548Z,61.50
2019-03-06T12:35:34.199Z,62.20
2019-03-06T12:36:38.504Z,62.30
2019-03-06T12:37:47.127Z,62.80
2019-03-06T12:38:54.020Z,63.60
2019-03-06T12:39:58.462Z,64.30
2019-03-06T12:41:09.972Z,64.70
2019-03-06T12:42:16.670Z,65.00
2019-03-06T12:43:23.029Z,66.40
2019-03-06T12:44:30.100Z,65.90
2019-03-06T12:45:36.568Z,66.20
2019-03-06T12:46:42.868Z,66.70
2019-03-06T12:47:55.330Z,66.30
2019-03-06T12:48:59.748Z,66.10
2019-03-06T12:50:09.004Z,66.00
2019-03-06T12:51:15.744Z,65.80
2019-03-06T12:52:20.350Z,64.50
2019-03-06T12:53:28.069Z,64.60
2019-03-06T12:54:34.089Z,64.80
2019-03-06T12:55:39.896Z,63.90
2019-03-06T12:56:45.675Z,63.70
2019-03-06T12:57:59.130Z,63.80
2019-03-06T12:59:03.808Z,63.80
2019-03-06T13:00:26.040Z,63.60
2019-03-06T13:01:31.194Z,63.30
2019-03-06T13:02:37.556Z,63.40
2019-03-06T13:03:44.698Z,63.60
2019-03-06T13:04:53.291Z,63.70
2019-03-06T13:05:57.679Z,63.70
2019-03-06T13:07:04.705Z,64.00
2019-03-06T13:08:19.222Z,63.60
2019-03-06T13:09:17.292Z,63.40
2019-03-06T13:10:24.710Z,63.10
2019-03-06T13:11:29.124Z,63.30
2019-03-06T13:12:38.117Z,63.10
2019-03-06T13:13:41.713Z,62.90
2019-03-06T13:14:47.943Z,62.70
2019-03-06T13:15:54.911Z,62.70
2019-03-06T13:17:01.714Z,62.70
2019-03-06T13:18:06.750Z,62.00
2019-03-06T13:19:13.872Z,61.60
2019-03-06T13:20:20.653Z,62.50
2019-03-06T13:21:26.463Z,61.60
2019-03-06T13:22:32.319Z,61.90
2019-03-06T13:23:36.777Z,62.40
2019-03-06T13:24:42.762Z,62.60
2019-03-06T13:25:47.023Z,62.50
2019-03-06T13:26:51.328Z,62.50
2019-03-06T13:27:59.679Z,62.30
2019-03-06T13:29:06.666Z,62.00
2019-03-06T13:30:15.708Z,61.20
2019-03-06T13:31:20.628Z,61.10
2019-03-06T13:32:26.781Z,61.30
2019-03-06T13:33:33.710Z,61.30
2019-03-06T13:34:39.551Z,62.00
2019-03-06T13:35:46.852Z,62.20
2019-03-06T13:36:51.159Z,62.60
2019-03-06T13:37:59.368Z,61.60
2019-03-06T13:39:07.049Z,60.50
2019-03-06T13:40:18.212Z,60.40
2019-03-06T13:41:21.735Z,60.90
2019-03-06T13:42:26.714Z,60.40
2019-03-06T13:43:33.626Z,60.00
2019-03-06T13:44:41.190Z,60.20
2019-03-06T13:45:47.110Z,60.40
2019-03-06T13:46:55.234Z,60.40
2019-03-06T13:49:33.025Z,60.90
2019-03-06T13:51:04.072Z,61.00
2019-03-06T13:51:58.440Z,60.80
2019-03-06T13:53:05.712Z,60.80
2019-03-06T13:54:11.659Z,60.50
2019-03-06T13:55:20.816Z,60.70
2019-03-06T13:56:39.022Z,60.90
2019-03-06T14:02:18.682Z,61.20
2019-03-06T14:03:34.114Z,60.90
2019-03-06T14:04:40.860Z,60.80
2019-03-06T14:05:46.484Z,60.90
2019-03-06T14:06:52.643Z,61.00
2019-03-06T14:08:04.135Z,60.20
2019-03-06T14:09:08.888Z,60.30
2019-03-06T14:10:23.601Z,60.60
2019-03-06T14:11:23.730Z,60.20
2019-03-06T14:12:29.576Z,60.00
2019-03-06T14:13:34.801Z,60.60
2019-03-06T14:14:39.073Z,60.40
2019-03-06T14:15:53.666Z,60.50
2019-03-06T14:16:56.639Z,60.10
2019-03-06T14:18:04.936Z,60.50
2019-03-06T14:19:11.648Z,60.70
2019-03-06T14:20:21.412Z,61.10
2019-03-06T14:21:26.640Z,61.20
2019-03-06T14:22:31.581Z,61.50
2019-03-06T14:23:35.911Z,61.90
2019-03-06T14:24:40.034Z,62.10
2019-03-06T14:25:44.448Z,61.80
2019-03-06T14:26:50.940Z,61.90
2019-03-06T14:27:55.190Z,62.20
2019-03-06T14:28:59.966Z,61.90
2019-03-06T14:30:14.556Z,61.80
2019-03-06T14:31:20.589Z,61.60
2019-03-06T14:32:26.229Z,61.60
2019-03-06T14:33:30.485Z,61.70
2019-03-06T14:34:36.689Z,61.80
2019-03-06T14:35:41.077Z,61.90
2019-03-06T14:36:46.471Z,62.20
2019-03-06T14:37:51.707Z,62.40
2019-03-06T14:38:56.017Z,62.50
2019-03-06T14:40:09.451Z,62.60
2019-03-06T14:41:07.876Z,62.90
2019-03-06T14:42:12.573Z,63.10
2019-03-06T14:43:20.763Z,63.50
2019-03-06T14:44:25.993Z,63.60
2019-03-06T14:45:32.460Z,63.40
2019-03-06T14:46:39.248Z,63.40
2019-03-06T14:47:46.724Z,63.60
2019-03-06T14:48:57.566Z,63.30
2019-03-06T14:50:04.330Z,62.60
2019-03-06T14:51:13.971Z,62.60
2019-03-06T14:52:22.158Z,62.70
2019-03-06T14:53:31.616Z,62.60
2019-03-06T14:54:35.984Z,62.50
2019-03-06T14:55:40.540Z,62.30
2019-03-06T14:56:46.359Z,62.10
2019-03-06T14:57:53.657Z,62.00
2019-03-06T14:59:02.093Z,62.00
2019-03-06T15:00:18.089Z,61.80
2019-03-06T15:01:23.920Z,61.80
2019-03-06T15:02:28.434Z,61.90
2019-03-06T15:03:32.808Z,61.60
2019-03-06T15:04:39.572Z,61.80
2019-03-06T15:05:47.573Z,62.00
2019-03-06T15:06:54.534Z,62.30
2019-03-06T15:08:09.630Z,62.20
2019-03-06T15:09:19.789Z,62.30
2019-03-06T15:10:27.034Z,62.30
2019-03-06T15:11:33.878Z,62.30
2019-03-06T15:12:38.334Z,62.50
2019-03-06T15:13:42.600Z,62.70
2019-03-06T15:14:48.238Z,63.00
2019-03-06T15:15:54.907Z,63.60
2019-03-06T15:17:06.639Z,63.30
2019-03-06T15:18:15.406Z,63.20
2019-03-06T15:19:21.295Z,63.20
2019-03-06T15:20:28.746Z,63.00
2019-03-06T15:21:40.184Z,63.00
2019-03-06T15:22:50.382Z,63.00
2019-03-06T15:23:54.829Z,63.00
2019-03-06T15:25:03.810Z,63.00
2019-03-06T15:26:11.414Z,63.10
2019-03-06T15:27:17.087Z,63.10
2019-03-06T15:28:24.704Z,63.30
2019-03-06T15:29:29.613Z,64.30
2019-03-06T15:30:37.050Z,63.40
2019-03-06T15:31:41.998Z,63.60
2019-03-06T15:32:47.180Z,63.80
2019-03-06T15:33:51.503Z,63.90
2019-03-06T15:34:55.772Z,63.90
2019-03-06T15:36:01.527Z,64.00
2019-03-06T15:37:19.887Z,63.80
2019-03-06T15:38:25.271Z,63.70
2019-03-06T15:39:42.193Z,63.60
2019-03-06T15:40:40.612Z,63.70
2019-03-06T15:41:46.572Z,63.90
2019-03-06T15:42:51.007Z,63.90
2019-03-06T15:43:55.469Z,64.00
2019-03-06T15:44:59.811Z,64.20
2019-03-06T15:46:05.742Z,64.10
2019-03-06T15:47:10.129Z,64.00
2019-03-06T15:48:15.897Z,64.00
2019-03-06T15:49:24.106Z,64.20
2019-03-06T15:50:29.028Z,64.30
2019-03-06T15:51:34.618Z,64.30
2019-03-06T15:52:43.624Z,64.30
2019-03-06T15:53:49.708Z,64.40
2019-03-06T15:54:55.642Z,64.70
2019-03-06T15:56:02.612Z,64.70
2019-03-06T15:57:10.942Z,64.80
2019-03-06T15:58:16.809Z,64.90
2019-03-06T15:59:26.730Z,65.00
2019-03-06T16:00:45.755Z,65.00
2019-03-06T16:01:43.949Z,65.00
2019-03-06T16:02:52.430Z,65.20
2019-03-06T16:03:58.418Z,65.30
2019-03-06T16:05:06.209Z,65.40